Time;durP1;ratioP1;P1;durP2;ratioP2;P2;SDS_P1;SDS_P2;PMS_P1;PMS_P2;Temp;Humidity;BMP_temperature;BMP_pressure;BME280_temperature;BME280_humidity;BME280_pressure;Samples;Min_cycle;Max_cycle;Signal;HPM_P1;HPM_P2
2022/03/21 00:02:02;;;;;;;23.42;10.73;;;;;;;-5.82;82.07;92337.72;5031182;28;20451;-63
2022/03/21 00:04:28;;;;;;;27.25;11.52;;;;;;;-5.88;83.68;92333.22;5030908;28;20033;-64
2022/03/21 00:06:53;;;;;;;19.25;8.80;;;;;;;-5.85;83.39;92332.88;5030962;28;20025;-66
2022/03/21 00:09:19;;;;;;;20.58;8.48;;;;;;;-5.77;83.31;92332.00;5031054;28;20026;-63
2022/03/21 00:11:44;;;;;;;24.67;9.55;;;;;;;-5.82;84.29;92332.53;5030888;28;20112;-62
2022/03/21 00:14:11;;;;;;;19.58;8.35;;;;;;;-5.86;83.96;92328.66;5030937;28;20021;-63
2022/03/21 00:16:37;;;;;;;22.38;9.38;;;;;;;-5.84;83.51;92318.13;5030824;28;20075;-63
2022/03/21 00:19:03;;;;;;;26.15;10.88;;;;;;;-5.91;84.06;92310.28;5030765;28;20030;-64
2022/03/21 00:21:29;;;;;;;23.70;11.20;;;;;;;-5.86;84.02;92317.50;5031245;28;20094;-63
2022/03/21 00:23:55;;;;;;;27.88;10.80;;;;;;;-5.82;83.33;92316.19;5030971;28;20033;-63
2022/03/21 00:26:20;;;;;;;30.52;12.52;;;;;;;-5.81;83.54;92323.78;5030816;28;20037;-63
2022/03/21 00:28:46;;;;;;;32.17;11.13;;;;;;;-5.82;82.15;92316.19;5031694;28;20392;-63
2022/03/21 00:31:11;;;;;;;22.00;10.10;;;;;;;-5.76;84.32;92320.66;5034870;28;20517;-62
2022/03/21 00:33:37;;;;;;;23.13;9.93;;;;;;;-5.83;84.23;92324.94;5034850;28;20030;-62
2022/03/21 00:36:05;;;;;;;16.48;7.40;;;;;;;-5.89;85.29;92321.25;5034523;28;20029;-62
2022/03/21 00:38:31;;;;;;;16.35;7.88;;;;;;;-6.03;85.67;92314.28;5034662;28;20026;-62
2022/03/21 00:40:57;;;;;;;16.33;7.97;;;;;;;-6.11;86.32;92310.00;5034632;28;20033;-62
2022/03/21 00:43:23;;;;;;;20.85;9.77;;;;;;;-6.07;85.43;92316.41;5034825;28;20041;-62
2022/03/21 00:45:54;;;;;;;17.75;8.27;;;;;;;-5.93;87.48;92314.84;5034441;28;20032;-62
2022/03/21 00:48:24;;;;;;;12.73;6.55;;;;;;;-6.03;87.08;92325.44;5034483;28;20418;-62
2022/03/21 00:50:50;;;;;;;13.30;6.72;;;;;;;-6.05;86.79;92321.44;5033116;28;20049;-62
2022/03/21 00:53:19;;;;;;;16.85;7.75;;;;;;;-6.06;85.09;92317.22;5034265;28;20029;-62
2022/03/21 00:55:46;;;;;;;16.23;7.82;;;;;;;-6.10;84.92;92318.56;5034080;28;20108;-62
2022/03/21 00:58:11;;;;;;;13.60;6.97;;;;;;;-6.07;84.19;92315.63;5034659;28;20033;-62
2022/03/21 01:00:37;;;;;;;15.52;7.35;;;;;;;-6.09;83.99;92309.81;5034460;28;20510;-62
2022/03/21 01:03:03;;;;;;;16.30;7.75;;;;;;;-6.06;84.55;92318.03;5034408;28;20409;-62
2022/03/21 01:05:29;;;;;;;14.35;6.43;;;;;;;-6.01;85.25;92317.50;5034040;28;20526;-62
2022/03/21 01:07:55;;;;;;;14.35;7.57;;;;;;;-6.01;85.71;92311.50;5034570;28;20035;-62
2022/03/21 01:10:22;;;;;;;14.25;7.75;;;;;;;-5.98;86.14;92312.00;5034276;28;20037;-62
2022/03/21 01:12:49;;;;;;;17.33;7.13;;;;;;;-6.06;87.69;92310.25;5034103;28;20431;-62
2022/03/21 01:15:18;;;;;;;14.73;8.05;;;;;;;-6.08;86.93;92307.03;5034094;28;20116;-62
2022/03/21 01:17:44;;;;;;;20.92;7.60;;;;;;;-6.12;85.55;92300.59;5034331;28;20026;-62
2022/03/21 01:20:11;;;;;;;14.90;8.05;;;;;;;-6.22;85.28;92292.28;5033994;28;20507;-62
2022/03/21 01:22:37;;;;;;;22.58;8.68;;;;;;;-6.19;85.70;92299.69;5034049;28;20022;-62
2022/03/21 01:25:03;;;;;;;13.15;6.60;;;;;;;-6.31;87.84;92300.25;5033880;28;20041;-62
2022/03/21 01:27:29;;;;;;;13.77;7.60;;;;;;;-6.30;88.66;92299.31;5033990;28;20033;-62
2022/03/21 01:29:56;;;;;;;16.63;7.80;;;;;;;-6.39;88.44;92295.97;5034161;28;20033;-63
2022/03/21 01:32:21;;;;;;;18.38;7.35;;;;;;;-6.41;88.12;92290.16;5033799;28;20055;-63
2022/03/21 01:34:47;;;;;;;18.52;7.25;;;;;;;-6.40;87.75;92286.59;5033755;28;20496;-63
2022/03/21 01:37:12;;;;;;;17.02;8.27;;;;;;;-6.37;87.86;92287.03;5033751;28;20033;-62
2022/03/21 01:39:38;;;;;;;15.43;6.93;;;;;;;-6.44;88.03;92291.31;5033084;28;20030;-63
2022/03/21 01:42:04;;;;;;;16.85;7.13;;;;;;;-6.44;87.57;92291.31;5033664;28;20110;-62
2022/03/21 01:44:29;;;;;;;16.70;7.90;;;;;;;-6.44;87.72;92280.97;5033580;28;20026;-63
2022/03/21 01:46:55;;;;;;;16.63;8.10;;;;;;;-6.47;86.63;92273.56;5033493;28;20044;-63
2022/03/21 01:49:20;;;;;;;14.20;7.13;;;;;;;-6.35;86.45;92266.16;5033537;28;20767;-63
2022/03/21 01:51:46;;;;;;;14.75;7.22;;;;;;;-6.42;87.62;92279.00;5033360;28;20025;-62
2022/03/21 01:56:56;;;;;;;13.90;7.63;;;;;;;-6.59;87.76;92267.16;5033513;28;20464;-63
2022/03/21 01:59:22;;;;;;;17.70;8.15;;;;;;;-6.61;88.00;92268.31;5033360;28;20104;-63
2022/03/21 02:01:49;;;;;;;19.95;8.45;;;;;;;-6.55;87.45;92268.44;5033498;28;20426;-61
2022/03/21 02:04:15;;;;;;;13.63;7.65;;;;;;;-6.54;87.25;92270.03;5033322;28;20032;-61
2022/03/21 02:06:44;;;;;;;14.68;7.88;;;;;;;-6.57;88.58;92270.38;5032915;28;20041;-61
2022/03/21 02:09:10;;;;;;;15.93;7.70;;;;;;;-6.62;89.61;92267.53;5033196;28;20083;-61
2022/03/21 02:11:37;;;;;;;14.75;7.20;;;;;;;-6.63;91.46;92265.88;5033071;28;20045;-61
2022/03/21 02:14:04;;;;;;;14.95;7.47;;;;;;;-6.62;92.67;92262.34;5033116;28;20086;-61
2022/03/21 02:16:32;;;;;;;18.08;7.47;;;;;;;-6.65;93.55;92265.25;5032918;28;20124;-60
2022/03/21 02:19:29;;;;;;;17.60;7.70;;;;;;;-6.67;95.13;92259.44;5032884;28;20036;-60
2022/03/21 02:21:57;;;;;;;15.32;7.03;;;;;;;-6.74;95.43;92269.69;5032220;28;20570;-60
2022/03/21 02:25:00;;;;;;;15.35;7.35;;;;;;;-6.73;95.46;92267.91;5032812;28;20027;-60
2022/03/21 02:27:26;;;;;;;14.32;7.18;;;;;;;-6.77;95.40;92264.88;5011568;28;20041;-62
2022/03/21 02:29:53;;;;;;;13.18;7.05;;;;;;;-6.73;94.82;92260.97;5032837;28;20036;-60
2022/03/21 02:32:19;;;;;;;13.35;6.80;;;;;;;-6.73;93.96;92268.72;5031437;28;20467;-61
2022/03/21 02:34:47;;;;;;;13.60;6.75;;;;;;;-6.71;93.60;92271.13;5032882;28;20113;-60
2022/03/21 02:37:16;;;;;;;15.18;7.15;;;;;;;-6.68;94.18;92269.00;5032754;28;20104;-62
2022/03/21 02:39:43;;;;;;;11.88;7.10;;;;;;;-6.74;95.33;92261.13;5032567;28;20414;-61
2022/03/21 02:42:09;;;;;;;17.17;8.05;;;;;;;-6.62;94.60;92267.53;5032251;28;20029;-61
2022/03/21 02:44:36;;;;;;;14.15;7.18;;;;;;;-6.48;94.19;92266.75;5032271;28;20484;-61
2022/03/21 02:47:03;;;;;;;15.10;7.07;;;;;;;-6.52;94.76;92272.44;5032090;28;20029;-63
2022/03/21 02:49:29;;;;;;;15.27;7.47;;;;;;;-6.54;96.44;92267.44;5032094;28;20478;-63
2022/03/21 02:51:56;;;;;;;14.60;6.78;;;;;;;-6.55;97.09;92267.63;5031130;28;20025;-63
2022/03/21 02:54:23;;;;;;;14.68;6.97;;;;;;;-6.58;97.84;92273.97;5032056;28;20065;-64
2022/03/21 02:56:49;;;;;;;15.80;7.45;;;;;;;-6.64;98.22;92264.28;5031762;28;20026;-61
2022/03/21 02:59:18;;;;;;;19.42;6.80;;;;;;;-6.63;97.83;92271.06;5031970;28;20034;-61
2022/03/21 03:01:44;;;;;;;13.10;7.15;;;;;;;-6.64;97.08;92264.28;5032092;28;20034;-63
2022/03/21 03:06:44;;;;;;;14.77;7.75;;;;;;;-6.62;96.87;92266.72;4989531;28;20061;-60
2022/03/21 03:09:10;;;;;;;15.68;8.18;;;;;;;-6.57;95.92;92269.59;4992905;28;20403;-60
2022/03/21 03:11:36;;;;;;;15.50;7.40;;;;;;;-6.61;96.06;92276.91;4992937;28;20054;-60
2022/03/21 03:14:03;;;;;;;13.57;8.20;;;;;;;-6.61;96.44;92276.09;4992878;28;20023;-60
2022/03/21 03:16:29;;;;;;;15.52;8.27;;;;;;;-6.57;96.42;92279.94;4992702;28;20503;-60
2022/03/21 03:18:54;;;;;;;17.50;9.30;;;;;;;-6.54;96.21;92280.38;4992723;28;20027;-60
2022/03/21 03:21:24;;;;;;;21.83;10.15;;;;;;;-6.51;96.03;92279.22;4992710;28;20407;-60
2022/03/21 03:23:51;;;;;;;19.73;7.80;;;;;;;-6.45;95.58;92276.78;4992723;28;20157;-59
2022/03/21 03:26:17;;;;;;;21.88;10.05;;;;;;;-6.24;94.01;92280.47;4992627;28;20049;-59
2022/03/21 03:28:43;;;;;;;22.75;9.82;;;;;;;-6.13;91.99;92278.28;4994372;28;20030;-60
2022/03/21 03:31:09;;;;;;;19.75;9.63;;;;;;;-6.06;90.30;92281.75;4998475;28;20117;-60
2022/03/21 03:33:36;;;;;;;19.92;9.98;;;;;;;-6.01;89.59;92283.81;4997814;28;20033;-59
2022/03/21 03:36:01;;;;;;;25.80;11.00;;;;;;;-5.89;88.70;92281.56;4992628;28;20041;-59
2022/03/21 03:38:27;;;;;;;19.60;8.90;;;;;;;-5.77;87.45;92278.38;4992554;28;20026;-59
2022/03/21 03:40:54;;;;;;;16.17;7.95;;;;;;;-5.73;86.84;92264.06;4992417;28;20053;-59
2022/03/21 03:43:20;;;;;;;14.63;7.57;;;;;;;-5.68;86.47;92267.91;4992345;28;20586;-60
2022/03/21 03:45:48;;;;;;;21.27;8.13;;;;;;;-5.71;85.09;92266.47;4992187;28;20539;-60
2022/03/21 03:48:14;;;;;;;18.35;8.75;;;;;;;-5.81;84.32;92261.59;4992543;28;20037;-60
2022/03/21 03:50:40;;;;;;;18.65;9.68;;;;;;;-5.86;83.98;92252.72;4992544;28;20062;-60
2022/03/21 03:53:05;;;;;;;20.90;9.77;;;;;;;-6.06;85.95;92255.06;4992482;28;20459;-59
2022/03/21 03:55:31;;;;;;;17.10;8.15;;;;;;;-6.31;89.62;92271.78;4992408;28;20030;-59
2022/03/21 03:57:56;;;;;;;15.35;7.78;;;;;;;-6.50;90.63;92270.47;4992494;28;20371;-59
2022/03/21 04:00:22;;;;;;;19.42;8.20;;;;;;;-6.64;90.54;92269.44;4992084;28;20029;-60
2022/03/21 04:05:31;;;;;;;16.65;7.95;;;;;;;-6.83;92.48;92265.53;4991941;28;20427;-59
2022/03/21 04:07:57;;;;;;;18.90;9.57;;;;;;;-6.82;92.33;92269.75;4992083;28;20027;-59
2022/03/21 04:10:22;;;;;;;17.63;10.25;;;;;;;-6.72;92.25;92259.97;4992052;28;20496;-60
2022/03/21 04:12:49;;;;;;;20.55;9.68;;;;;;;-6.65;91.61;92262.66;4991959;28;20065;-59
2022/03/21 04:15:15;;;;;;;27.17;11.40;;;;;;;-6.60;90.94;92259.59;4992146;28;20034;-59
2022/03/21 04:17:41;;;;;;;22.30;11.43;;;;;;;-6.55;91.14;92260.66;4992018;28;20193;-60
2022/03/21 04:20:07;;;;;;;21.88;11.27;;;;;;;-6.44;92.20;92257.66;4985278;28;20480;-59
2022/03/21 04:22:34;;;;;;;17.05;7.03;;;;;;;-6.42;92.14;92260.09;4991684;28;20480;-60
2022/03/21 04:25:00;;;;;;;25.38;11.27;;;;;;;-6.42;91.91;92263.47;4991696;28;20492;-59
2022/03/21 04:27:25;;;;;;;17.92;8.98;;;;;;;-6.42;92.32;92263.47;4991677;28;20049;-60
2022/03/21 04:29:51;;;;;;;16.20;8.27;;;;;;;-6.60;95.51;92259.59;4991833;28;20034;-59
2022/03/21 04:32:16;;;;;;;20.90;8.27;;;;;;;-6.64;96.69;92259.91;4991642;28;20466;-58
2022/03/21 04:34:42;;;;;;;24.40;13.15;;;;;;;-6.51;96.01;92258.53;4991275;28;20037;-56
2022/03/21 04:37:07;;;;;;;24.23;9.23;;;;;;;-6.38;94.48;92254.38;4991576;28;20030;-59
2022/03/21 04:39:33;;;;;;;26.23;14.23;;;;;;;-6.31;93.20;92257.09;4991598;28;20501;-59
2022/03/21 04:41:59;;;;;;;21.33;7.80;;;;;;;-6.36;93.00;92244.63;4991419;28;20046;-57
2022/03/21 04:44:25;;;;;;;22.02;8.55;;;;;;;-6.34;92.76;92255.63;4991383;28;20027;-59
2022/03/21 04:46:51;;;;;;;28.15;12.18;;;;;;;-6.22;91.68;92257.81;4991514;28;20141;-58
2022/03/21 04:49:16;;;;;;;30.27;9.65;;;;;;;-6.24;91.47;92255.38;4991036;28;20578;-58
2022/03/21 04:51:42;;;;;;;17.23;9.38;;;;;;;-6.18;91.39;92244.31;4991507;28;20032;-58
2022/03/21 04:54:07;;;;;;;22.83;12.63;;;;;;;-6.09;89.18;92258.00;4991438;28;20057;-53
2022/03/21 04:56:33;;;;;;;21.23;10.20;;;;;;;-5.99;87.39;92257.75;4991462;28;20042;-57
2022/03/21 04:58:58;;;;;;;23.50;12.48;;;;;;;-5.89;86.53;92253.88;4991733;28;20035;-57
2022/03/21 05:01:24;;;;;;;15.50;8.63;;;;;;;-5.83;85.61;92268.72;4991414;28;20506;-58
2022/03/21 05:03:50;;;;;;;21.70;11.68;;;;;;;-5.77;84.62;92260.25;4990955;28;20039;-57
2022/03/21 05:06:16;;;;;;;10.85;6.72;;;;;;;-5.65;84.67;92265.78;4991043;28;20492;-58
2022/03/21 05:08:43;;;;;;;19.15;10.98;;;;;;;-5.82;85.03;92256.59;4991269;28;20111;-59
2022/03/21 05:11:09;;;;;;;25.77;9.75;;;;;;;-5.74;85.95;92261.66;4991364;28;20432;-59
2022/03/21 05:13:35;;;;;;;16.85;9.52;;;;;;;-5.78;85.77;92256.03;4991287;28;20033;-59
2022/03/21 05:16:01;;;;;;;19.50;11.75;;;;;;;-5.47;86.84;92257.66;4993272;28;20655;-59
2022/03/21 05:18:27;;;;;;;21.67;8.95;;;;;;;-4.22;81.03;92253.78;4999105;28;20058;-59
2022/03/21 05:20:52;;;;;;;29.17;9.60;;;;;;;-3.06;73.72;92257.47;4998233;28;20085;-60
2022/03/21 05:31:29;;;;;;;24.17;10.80;;;;;;;-1.18;61.98;92259.03;4994605;28;20471;-60
2022/03/21 05:36:39;;;;;;;29.20;13.52;;;;;;;-0.45;58.19;92269.22;4994852;28;20053;-61
2022/03/21 05:39:04;;;;;;;33.08;14.13;;;;;;;-0.64;58.83;92265.66;4994798;28;20030;-61
2022/03/21 05:41:30;;;;;;;19.40;10.90;;;;;;;-0.65;57.86;92271.91;4994473;28;20526;-61
2022/03/21 05:43:56;;;;;;;30.48;11.60;;;;;;;0.32;55.88;92269.88;4994501;28;20125;-61
2022/03/21 05:46:22;;;;;;;29.15;10.93;;;;;;;-0.57;57.01;92273.50;4994310;28;20420;-61
2022/03/21 05:48:51;;;;;;;33.28;11.30;;;;;;;-0.28;57.42;92278.16;4994463;28;20026;-61
2022/03/21 05:51:27;;;;;;;28.30;10.25;;;;;;;0.15;56.79;92270.41;4994237;28;20050;-61
2022/03/21 05:53:53;;;;;;;30.00;9.82;;;;;;;0.71;54.96;92266.94;4994093;28;20033;-61
2022/03/21 05:56:18;;;;;;;30.77;9.70;;;;;;;1.63;52.83;92264.31;4992917;28;20038;-60
2022/03/21 05:58:44;;;;;;;52.38;12.27;;;;;;;2.36;51.10;92266.69;4994266;28;20475;-61
2022/03/21 06:01:14;;;;;;;33.47;13.95;;;;;;;3.24;48.90;92257.91;4994002;28;20046;-61
2022/03/21 06:03:40;;;;;;;33.70;13.60;;;;;;;3.49;47.67;92266.34;4993944;28;20030;-61
2022/03/21 06:06:06;;;;;;;42.33;14.98;;;;;;;4.59;45.76;92244.09;4993614;28;20053;-60
2022/03/21 06:08:32;;;;;;;50.47;17.40;;;;;;;4.64;44.19;92261.81;4993869;28;20034;-60
2022/03/21 06:11:03;;;;;;;33.63;18.25;;;;;;;6.54;41.27;92262.91;4993893;28;20037;-61
2022/03/21 06:13:33;;;;;;;42.72;20.05;;;;;;;8.59;38.57;92260.28;4993756;28;20031;-61
2022/03/21 06:16:03;;;;;;;51.47;20.80;;;;;;;9.88;35.90;92264.13;4993648;28;20496;-61
2022/03/21 06:18:30;;;;;;;56.90;24.95;;;;;;;10.09;34.92;92264.03;4994081;28;20113;-61
2022/03/21 06:20:55;;;;;;;43.92;23.20;;;;;;;10.43;34.75;92270.31;4994022;28;20045;-61
2022/03/21 06:23:21;;;;;;;43.33;24.90;;;;;;;11.51;33.21;92256.97;4992645;28;20404;-61
2022/03/21 06:25:46;;;;;;;43.08;21.05;;;;;;;9.38;34.28;92266.91;4993471;28;20038;-61
2022/03/21 06:28:12;;;;;;;47.88;20.20;;;;;;;11.10;33.25;92268.00;4993626;28;20029;-61
2022/03/21 06:30:37;;;;;;;37.75;20.15;;;;;;;13.14;31.04;92263.81;4993561;28;20086;-61
2022/03/21 06:33:03;;;;;;;39.28;22.45;;;;;;;14.56;29.57;92263.16;4993499;28;20030;-59
2022/03/21 06:35:29;;;;;;;51.05;25.02;;;;;;;13.91;29.75;92266.03;4993476;28;20038;-59
2022/03/21 06:37:54;;;;;;;60.00;24.27;;;;;;;13.92;29.17;92259.59;4993428;28;20031;-59
2022/03/21 06:40:20;;;;;;;43.00;19.90;;;;;;;14.15;28.78;92258.59;4993600;28;20034;-60
2022/03/21 06:42:46;;;;;;;41.08;17.55;;;;;;;11.97;29.89;92249.34;4993101;28;20037;-60
2022/03/21 06:45:11;;;;;;;103.45;57.55;;;;;;;12.40;31.56;92260.03;4993196;28;20042;-60
2022/03/21 06:47:37;;;;;;;67.78;31.45;;;;;;;13.81;30.16;92253.63;4993291;28;20100;-60
2022/03/21 06:50:04;;;;;;;39.22;18.17;;;;;;;14.52;29.29;92262.19;4991898;28;20097;-60
2022/03/21 06:52:29;;;;;;;42.58;22.85;;;;;;;14.64;28.66;92257.88;4993117;28;20026;-60
2022/03/21 06:54:55;;;;;;;46.50;18.27;;;;;;;15.68;27.46;92250.69;4993055;28;20080;-60
2022/03/21 06:57:21;;;;;;;32.40;17.30;;;;;;;14.63;28.09;92258.19;4992976;28;20113;-60
2022/03/21 06:59:47;;;;;;;55.30;22.30;;;;;;;15.94;27.37;92247.34;4993260;28;20097;-60
2022/03/21 07:02:14;;;;;;;42.92;19.88;;;;;;;15.07;27.56;92252.13;4993239;28;20030;-60
2022/03/21 07:04:40;;;;;;;53.75;19.92;;;;;;;14.45;28.07;92259.09;4992572;28;20120;-60
2022/03/21 07:07:05;;;;;;;36.58;21.60;;;;;;;13.07;28.55;92258.03;4992880;28;20026;-60
2022/03/21 07:09:31;;;;;;;37.03;17.35;;;;;;;14.21;28.62;92252.06;4992859;28;20051;-60
2022/03/21 07:11:56;;;;;;;25.85;14.18;;;;;;;13.71;27.59;92254.56;4992886;28;20037;-60
2022/03/21 07:14:22;;;;;;;50.40;15.20;;;;;;;14.17;27.89;92247.59;4993110;28;20125;-60
2022/03/21 07:16:48;;;;;;;51.65;16.52;;;;;;;15.02;27.11;92254.94;4993840;28;20033;-60
2022/03/21 07:19:14;;;;;;;33.55;11.32;;;;;;;13.89;27.79;92244.91;4992625;28;20514;-60
2022/03/21 07:21:39;;;;;;;26.75;11.93;;;;;;;14.48;28.10;92251.25;4992628;28;20030;-61
2022/03/21 07:24:06;;;;;;;39.85;24.77;;;;;;;13.79;28.20;92247.78;4992571;28;20554;-61
2022/03/21 07:26:32;;;;;;;28.33;16.13;;;;;;;13.90;28.04;92238.47;4992751;28;20057;-61
2022/03/21 07:28:58;;;;;;;34.42;14.38;;;;;;;14.48;28.09;92245.91;4992720;28;20034;-61
2022/03/21 07:31:23;;;;;;;30.52;14.13;;;;;;;17.02;26.97;92231.38;4992388;28;20038;-61
2022/03/21 07:33:49;;;;;;;42.95;15.32;;;;;;;15.79;26.58;92230.56;4992162;28;20073;-61
2022/03/21 07:36:15;;;;;;;36.47;15.13;;;;;;;16.26;26.62;92230.13;4992374;28;20026;-61
2022/03/21 07:38:40;;;;;;;31.15;15.10;;;;;;;15.99;27.19;92229.22;4991860;28;20022;-61
2022/03/21 07:41:07;;;;;;;142.70;22.38;;;;;;;14.82;27.99;92231.25;4992341;28;20038;-61
2022/03/21 07:43:36;;;;;;;24.65;12.80;;;;;;;11.60;29.96;92234.78;4992400;28;20030;-61
2022/03/21 07:48:46;;;;;;;31.77;13.70;;;;;;;14.27;28.07;92232.13;4992154;28;20037;-61
2022/03/21 07:51:12;;;;;;;24.02;13.20;;;;;;;16.14;26.68;92222.66;4992145;28;20427;-61
2022/03/21 07:53:38;;;;;;;85.55;14.10;;;;;;;16.85;25.61;92226.00;4992113;28;20415;-61
2022/03/21 07:56:04;;;;;;;57.47;16.42;;;;;;;15.73;26.42;92218.34;4992033;28;20026;-61
2022/03/21 07:58:31;;;;;;;25.13;12.38;;;;;;;16.78;26.41;92217.63;4991983;28;20038;-61
2022/03/21 08:00:59;;;;;;;22.45;11.52;;;;;;;14.36;27.42;92218.84;4991995;28;20034;-61
2022/03/21 08:03:26;;;;;;;30.13;14.73;;;;;;;15.50;28.30;92208.75;4992149;28;20117;-61
2022/03/21 08:05:52;;;;;;;46.33;15.27;;;;;;;17.54;26.32;92212.53;4991682;28;20530;-61
2022/03/21 08:08:20;;;;;;;26.13;11.95;;;;;;;16.22;25.66;92204.97;4991872;28;20041;-61
2022/03/21 08:10:46;;;;;;;27.30;14.15;;;;;;;11.48;30.07;92205.06;4991684;28;20039;-61
2022/03/21 08:13:14;;;;;;;36.10;15.38;;;;;;;15.25;28.02;92200.22;4991734;28;20038;-61
2022/03/21 08:15:39;;;;;;;18.08;12.00;;;;;;;14.51;27.08;92207.81;4991659;28;20054;-61
2022/03/21 08:18:05;;;;;;;52.92;15.15;;;;;;;13.14;30.19;92210.38;4991597;28;20037;-61
2022/03/21 08:20:37;;;;;;;20.75;12.05;;;;;;;9.56;32.01;92202.59;4991997;28;20128;-61
2022/03/21 08:23:06;;;;;;;37.67;16.05;;;;;;;7.09;35.49;92208.00;4991807;28;20042;-60
2022/03/21 08:25:33;;;;;;;26.98;11.95;;;;;;;7.00;36.12;92204.25;4991754;28;20042;-61
2022/03/21 08:27:59;;;;;;;40.15;19.42;;;;;;;9.64;34.35;92203.91;4991825;28;20080;-60
2022/03/21 08:30:25;;;;;;;25.73;10.35;;;;;;;8.36;33.90;92200.56;4991583;28;20117;-61
2022/03/21 08:32:50;;;;;;;30.02;14.68;;;;;;;10.40;34.10;92207.00;4991224;28;20512;-61
2022/03/21 08:35:18;;;;;;;45.70;12.93;;;;;;;13.17;30.04;92183.06;4991415;28;20051;-61
2022/03/21 08:37:43;;;;;;;25.30;11.50;;;;;;;13.98;29.04;92194.97;4991374;28;20048;-61
2022/03/21 08:40:10;;;;;;;72.82;15.35;;;;;;;14.02;29.21;92195.94;4991345;28;20050;-61
2022/03/21 08:42:36;;;;;;;35.83;13.45;;;;;;;13.94;28.78;92193.19;4991290;28;20043;-62
2022/03/21 08:45:03;;;;;;;36.55;11.57;;;;;;;12.48;30.29;92195.34;4991289;28;20057;-62
2022/03/21 08:47:28;;;;;;;37.03;13.40;;;;;;;15.75;28.36;92191.22;4991431;28;20046;-61
2022/03/21 08:49:53;;;;;;;40.80;12.25;;;;;;;16.74;27.05;92179.06;4992524;28;20401;-61
2022/03/21 08:52:22;;;;;;;34.15;14.07;;;;;;;18.40;26.02;92187.22;4995379;28;20499;-60
2022/03/21 08:54:48;;;;;;;23.65;13.35;;;;;;;18.67;24.78;92187.91;4995217;28;20492;-61
2022/03/21 08:57:13;;;;;;;40.55;16.65;;;;;;;17.81;26.00;92192.53;4995280;28;20088;-60
2022/03/21 08:59:39;;;;;;;18.98;9.23;;;;;;;17.34;24.72;92194.34;4995310;28;20486;-60
2022/03/21 09:02:05;;;;;;;64.05;12.63;;;;;;;14.28;27.93;92188.19;4995198;28;20093;-61
2022/03/21 09:04:30;;;;;;;23.45;11.45;;;;;;;15.64;27.85;92185.34;4995147;28;20508;-61
2022/03/21 09:06:55;;;;;;;26.23;12.23;;;;;;;16.29;27.03;92187.31;4995087;28;20566;-61
2022/03/21 09:09:21;;;;;;;24.40;10.57;;;;;;;17.08;25.25;92186.31;4995051;28;20121;-61
2022/03/21 09:11:47;;;;;;;109.70;17.30;;;;;;;15.80;26.39;92183.84;4995294;28;20554;-61
2022/03/21 09:14:14;;;;;;;33.28;13.65;;;;;;;11.77;29.71;92190.88;4994923;28;20113;-61
2022/03/21 09:16:42;;;;;;;20.52;12.90;;;;;;;9.26;33.68;92182.22;4994980;28;20053;-61
2022/03/21 09:19:08;;;;;;;50.03;24.27;;;;;;;9.04;34.36;92193.16;4994806;28;20121;-61
2022/03/21 09:21:34;;;;;;;78.70;45.13;;;;;;;12.06;31.44;92178.28;4994739;28;20494;-61
2022/03/21 09:23:59;;;;;;;22.08;10.48;;;;;;;14.98;28.00;92189.63;4994627;28;20050;-60
2022/03/21 09:26:25;;;;;;;29.60;10.80;;;;;;;14.06;28.30;92186.25;4994554;28;20488;-61
2022/03/21 09:28:59;;;;;;;35.72;11.63;;;;;;;15.80;26.58;92173.09;4996482;28;20046;-60
2022/03/21 09:31:28;;;;;;;39.75;11.77;;;;;;;14.28;28.02;92187.41;4995801;28;20043;-61
2022/03/21 09:33:55;;;;;;;17.15;9.30;;;;;;;14.59;27.39;92176.88;4994202;28;20038;-60
2022/03/21 09:36:20;;;;;;;22.50;10.07;;;;;;;12.92;28.27;92172.78;4994456;28;20042;-60
2022/03/21 09:38:45;;;;;;;32.50;11.25;;;;;;;13.17;28.46;92177.72;4994486;28;20061;-61
2022/03/21 09:41:13;;;;;;;19.02;9.18;;;;;;;12.59;29.00;92181.56;4994438;28;20137;-61
2022/03/21 09:43:39;;;;;;;24.23;10.98;;;;;;;12.50;29.69;92187.84;4994230;28;20046;-60
2022/03/21 09:46:07;;;;;;;47.00;12.00;;;;;;;10.72;31.86;92181.75;4994380;28;20073;-60
2022/03/21 09:48:34;;;;;;;39.40;12.15;;;;;;;9.69;33.49;92182.63;4994266;28;20087;-60
2022/03/21 09:51:01;;;;;;;44.10;12.40;;;;;;;8.75;35.07;92186.78;4994522;28;20485;-60
2022/03/21 09:53:28;;;;;;;30.48;10.48;;;;;;;9.49;33.71;92175.53;4994359;28;20057;-62
2022/03/21 09:55:55;;;;;;;24.38;9.60;;;;;;;10.07;32.21;92178.44;4994427;28;20042;-61
2022/03/21 09:58:21;;;;;;;20.30;10.40;;;;;;;10.97;30.82;92168.25;4994156;28;20539;-60
2022/03/21 10:00:49;;;;;;;24.63;9.90;;;;;;;13.48;29.50;92173.44;4993668;28;20046;-60
2022/03/21 10:03:16;;;;;;;88.57;14.45;;;;;;;15.03;28.58;92176.13;4993987;28;20515;-60
2022/03/21 10:05:45;;;;;;;24.13;11.20;;;;;;;15.81;26.25;92165.84;4993922;28;20058;-60
2022/03/21 10:08:21;;;;;;;22.75;10.23;;;;;;;13.73;27.99;92174.06;4994018;28;20436;-61
2022/03/21 10:11:01;;;;;;;31.95;11.40;;;;;;;14.30;28.12;92169.16;4993993;28;20053;-61
2022/03/21 10:13:29;;;;;;;40.63;12.00;;;;;;;13.22;29.27;92161.63;4994167;28;20066;-60
2022/03/21 10:16:11;;;;;;;22.33;12.10;;;;;;;13.75;30.30;92169.22;4993712;28;20072;-61
2022/03/21 10:18:38;;;;;;;38.47;14.18;;;;;;;14.61;30.17;92159.41;4994023;28;20050;-60
2022/03/21 10:21:14;;;;;;;67.80;17.63;;;;;;;13.71;31.03;92162.84;4993711;28;20050;-60
2022/03/21 10:23:40;;;;;;;29.00;14.70;;;;;;;12.93;29.91;92158.34;4993423;28;20046;-61
2022/03/21 10:26:27;;;;;;;34.42;15.27;;;;;;;10.68;33.50;92170.09;4993717;28;20042;-60
2022/03/21 10:28:55;;;;;;;72.45;35.78;;;;;;;9.20;33.73;92167.38;4993592;28;20049;-61
2022/03/21 10:31:40;;;;;;;33.50;18.63;;;;;;;9.52;35.37;92165.16;4993950;28;20468;-61
2022/03/21 10:34:11;;;;;;;49.65;14.70;;;;;;;9.78;34.15;92165.84;4993858;28;20053;-60
2022/03/21 10:36:59;;;;;;;51.13;15.57;;;;;;;9.51;34.35;92160.09;4993741;28;20046;-60
2022/03/21 10:39:25;;;;;;;18.58;10.82;;;;;;;11.22;32.97;92153.91;4993506;28;20038;-60
2022/03/21 10:41:56;;;;;;;24.88;14.73;;;;;;;12.73;31.99;92162.13;4993683;28;20458;-60
2022/03/21 10:44:22;;;;;;;20.70;11.65;;;;;;;12.17;31.83;92153.09;4993304;28;20101;-60
2022/03/21 10:46:53;;;;;;;27.58;12.52;;;;;;;8.67;35.66;92141.16;4993383;28;20034;-60
2022/03/21 10:49:30;;;;;;;28.08;13.73;;;;;;;10.43;35.04;92149.81;4993345;28;20432;-60
2022/03/21 10:51:56;;;;;;;26.63;14.85;;;;;;;13.55;31.23;92140.16;4993173;28;20534;-61
2022/03/21 10:54:36;;;;;;;28.38;10.13;;;;;;;14.91;29.65;92128.41;4993102;28;20125;-61
2022/03/21 10:57:03;;;;;;;17.05;6.38;;;;;;;11.77;29.51;92137.56;4993153;28;20524;-61
2022/03/21 10:59:29;;;;;;;35.00;9.38;;;;;;;12.22;31.11;92138.88;4993349;28;20085;-61
2022/03/21 11:02:14;;;;;;;20.50;9.25;;;;;;;12.66;29.10;92135.81;4992913;28;20455;-61
2022/03/21 11:04:42;;;;;;;20.60;8.85;;;;;;;12.59;29.59;92111.34;4992775;28;20035;-61
2022/03/21 11:07:11;;;;;;;27.73;12.15;;;;;;;14.62;29.66;92115.44;4992892;28;20125;-61
2022/03/21 11:09:38;;;;;;;24.25;10.60;;;;;;;13.35;29.92;92122.63;4993096;28;20173;-61
2022/03/21 11:12:05;;;;;;;13.45;8.52;;;;;;;10.79;31.55;92108.50;4992208;28;20038;-61
2022/03/21 11:14:31;;;;;;;13.77;8.85;;;;;;;12.76;31.24;92105.47;4992411;28;20416;-61
2022/03/21 11:16:58;;;;;;;24.42;13.20;;;;;;;13.34;30.91;92107.69;4992996;28;20050;-61
2022/03/21 11:19:25;;;;;;;24.83;10.05;;;;;;;16.12;28.10;92104.84;4992577;28;20082;-61
2022/03/21 11:21:51;;;;;;;29.95;9.75;;;;;;;16.08;27.12;92111.13;4992355;28;20424;-61
2022/03/21 11:24:17;;;;;;;12.73;8.60;;;;;;;14.37;28.08;92102.63;4992183;28;20034;-61
2022/03/21 11:26:55;;;;;;;24.77;9.00;;;;;;;15.33;29.02;92096.81;4992787;28;20493;-61
2022/03/21 11:29:21;;;;;;;12.70;8.15;;;;;;;16.60;26.46;92087.03;4992780;28;20042;-61
2022/03/21 11:32:20;;;;;;;16.60;7.15;;;;;;;15.81;25.97;92093.41;4992506;28;20120;-62
2022/03/21 11:35:10;;;;;;;10.00;6.75;;;;;;;15.45;26.87;92080.13;4992311;28;20038;-62
2022/03/21 11:37:35;;;;;;;17.45;7.30;;;;;;;16.43;25.88;92082.44;4992469;28;20103;-62
2022/03/21 11:40:26;;;;;;;37.33;9.23;;;;;;;16.72;27.27;92081.81;4992598;28;20113;-61
2022/03/21 11:42:53;;;;;;;28.52;8.13;;;;;;;16.30;26.96;92072.63;4992086;28;20504;-60
2022/03/21 11:45:27;;;;;;;18.02;7.65;;;;;;;14.78;27.59;92077.56;4992053;28;20098;-61